createdAt,value
2023-04-21T00:00:52.195Z,60.54
2023-04-21T00:02:40.087Z,60.64
2023-04-21T00:04:06.993Z,60.76
2023-04-21T00:05:28.644Z,60.75
2023-04-21T00:07:02.313Z,60.83
2023-04-21T00:08:42.709Z,60.92
2023-04-21T00:10:18.727Z,60.80
2023-04-21T00:12:01.695Z,61.14
2023-04-21T00:13:49.723Z,61.17
2023-04-21T00:15:35.174Z,61.42
2023-04-21T00:16:56.889Z,61.44
2023-04-21T00:18:21.086Z,61.51
2023-04-21T00:19:54.535Z,61.51
2023-04-21T00:21:39.221Z,61.67
2023-04-21T00:23:12.522Z,61.93
2023-04-21T00:24:34.417Z,62.11
2023-04-21T00:26:19.909Z,62.25
2023-04-21T00:28:04.975Z,62.36
2023-04-21T00:29:40.395Z,63.01
2023-04-21T00:31:13.760Z,62.19
2023-04-21T00:32:44.906Z,58.92
2023-04-21T00:34:26.312Z,54.40
2023-04-21T00:36:11.288Z,53.63
2023-04-21T00:37:56.205Z,54.21
2023-04-21T00:39:42.404Z,55.34
2023-04-21T00:41:23.011Z,56.35
2023-04-21T00:43:09.301Z,57.15
2023-04-21T00:44:45.109Z,57.96
2023-04-21T00:46:21.354Z,58.30
2023-04-21T00:47:54.916Z,58.69
2023-04-21T00:49:30.472Z,59.31
2023-04-21T00:51:15.794Z,59.70
2023-04-21T00:52:51.463Z,60.22
2023-04-21T00:54:27.158Z,60.59
2023-04-21T00:56:12.370Z,61.04
2023-04-21T00:57:52.779Z,61.25
2023-04-21T00:59:28.525Z,61.61
2023-04-21T01:01:01.799Z,61.84
2023-04-21T01:02:28.459Z,62.42
2023-04-21T01:04:13.847Z,63.10
2023-04-21T01:05:59.149Z,60.87
2023-04-21T01:07:42.417Z,56.62
2023-04-21T01:09:28.981Z,54.06
2023-04-21T01:11:04.414Z,54.66
2023-04-21T01:12:39.675Z,55.49
2023-04-21T01:14:15.633Z,56.53
2023-04-21T01:15:51.392Z,57.70
2023-04-21T01:17:45.646Z,58.40
2023-04-21T01:19:23.062Z,59.09
2023-04-21T01:21:04.355Z,59.51
2023-04-21T01:22:45.229Z,60.33
2023-04-21T01:24:09.530Z,60.20
2023-04-21T01:25:43.050Z,60.81
2023-04-21T01:27:07.752Z,61.28
2023-04-21T01:28:39.689Z,61.38
2023-04-21T01:30:12.799Z,61.69
2023-04-21T01:32:01.229Z,61.98
2023-04-21T01:33:33.075Z,62.71
2023-04-21T01:35:06.527Z,63.23
2023-04-21T01:36:51.997Z,60.55
2023-04-21T01:38:26.011Z,56.51
2023-04-21T01:40:04.422Z,54.28
2023-04-21T01:41:39.217Z,54.62
2023-04-21T01:43:13.182Z,55.58
2023-04-21T01:44:58.655Z,56.69
2023-04-21T01:46:20.687Z,57.65
2023-04-21T01:48:05.852Z,58.38
2023-04-21T01:49:46.438Z,59.26
2023-04-21T01:51:41.415Z,59.88
2023-04-21T01:53:35.073Z,60.59
2023-04-21T01:55:08.598Z,61.16
2023-04-21T01:56:44.648Z,61.62
2023-04-21T01:58:17.920Z,62.14
2023-04-21T01:59:49.545Z,63.01
2023-04-21T02:01:34.812Z,62.28
2023-04-21T02:03:10.748Z,58.73
2023-04-21T02:04:37.692Z,55.15
2023-04-21T02:06:03.701Z,54.65
2023-04-21T02:07:48.826Z,55.25
2023-04-21T02:09:41.198Z,56.61
2023-04-21T02:11:26.237Z,57.53
2023-04-21T02:13:01.038Z,58.24
2023-04-21T02:14:46.360Z,58.98
2023-04-21T02:16:27.053Z,59.60
2023-04-21T02:18:01.352Z,60.26
2023-04-21T02:19:46.017Z,60.73
2023-04-21T02:21:39.472Z,61.13
2023-04-21T02:23:08.892Z,61.73
2023-04-21T02:24:53.837Z,62.04
2023-04-21T02:26:38.499Z,62.56
2023-04-21T02:28:10.067Z,63.50
2023-04-21T02:29:44.311Z,61.74
2023-04-21T02:31:25.532Z,57.55
2023-04-21T02:33:06.443Z,54.60
2023-04-21T02:34:42.304Z,54.69
2023-04-21T02:36:27.084Z,55.77
2023-04-21T02:38:12.322Z,57.07
2023-04-21T02:39:46.036Z,57.96
2023-04-21T02:41:20.024Z,58.72
2023-04-21T02:42:57.608Z,59.45
2023-04-21T02:44:38.582Z,60.23
2023-04-21T02:46:14.597Z,60.97
2023-04-21T02:47:59.664Z,61.78
2023-04-21T02:49:40.143Z,62.07
2023-04-21T02:51:25.410Z,63.16
2023-04-21T02:53:10.857Z,62.50
2023-04-21T02:54:57.579Z,58.51
2023-04-21T02:56:51.424Z,54.94
2023-04-21T02:58:26.959Z,54.73
2023-04-21T03:00:12.157Z,55.87
2023-04-21T03:01:47.880Z,57.04
2023-04-21T03:03:42.489Z,58.20
2023-04-21T03:05:16.226Z,59.15
2023-04-21T03:06:49.760Z,59.93
2023-04-21T03:08:23.601Z,60.63
2023-04-21T03:09:56.575Z,61.09
2023-04-21T03:11:51.415Z,61.49
2023-04-21T03:13:18.422Z,62.22
2023-04-21T03:15:12.444Z,63.01
2023-04-21T03:16:53.345Z,62.77
2023-04-21T03:18:38.740Z,59.18
2023-04-21T03:20:14.722Z,55.22
2023-04-21T03:21:47.677Z,54.67
2023-04-21T03:23:30.436Z,55.36
2023-04-21T03:25:15.510Z,56.63
2023-04-21T03:27:11.054Z,58.01
2023-04-21T03:28:44.734Z,58.95
2023-04-21T03:30:39.424Z,59.65
2023-04-21T03:32:13.413Z,60.64
2023-04-21T03:33:53.186Z,61.36
2023-04-21T03:35:39.914Z,62.02
2023-04-21T03:37:16.012Z,62.95
2023-04-21T03:38:49.288Z,63.48
2023-04-21T03:40:30.083Z,60.90
2023-04-21T03:42:05.666Z,56.98
2023-04-21T03:43:50.654Z,54.75
2023-04-21T03:45:22.486Z,55.53
2023-04-21T03:47:06.548Z,56.55
2023-04-21T03:48:39.708Z,57.74
2023-04-21T03:50:15.400Z,59.04
2023-04-21T03:51:41.521Z,59.98
2023-04-21T03:53:26.941Z,60.55
2023-04-21T03:55:12.566Z,61.53
2023-04-21T03:56:47.970Z,62.16
2023-04-21T03:58:29.254Z,63.41
2023-04-21T04:00:14.830Z,63.31
2023-04-21T04:01:43.509Z,60.04
2023-04-21T04:03:21.871Z,56.05
2023-04-21T04:04:58.784Z,55.01
2023-04-21T04:06:39.854Z,55.71
2023-04-21T04:08:13.719Z,57.01
2023-04-21T04:09:45.299Z,58.08
2023-04-21T04:11:14.524Z,59.15
2023-04-21T04:12:55.214Z,60.13
2023-04-21T04:14:47.940Z,61.06
2023-04-21T04:16:29.269Z,61.96
2023-04-21T04:17:59.722Z,62.70
2023-04-21T04:19:33.411Z,63.84
2023-04-21T04:20:55.023Z,61.84
2023-04-21T04:22:49.423Z,58.48
2023-04-21T04:24:18.998Z,54.99
2023-04-21T04:25:49.229Z,54.88
2023-04-21T04:27:35.749Z,56.11
2023-04-21T04:29:22.300Z,57.41
2023-04-21T04:31:02.658Z,58.56
2023-04-21T04:32:43.251Z,59.68
2023-04-21T04:34:19.269Z,60.44
2023-04-21T04:35:43.275Z,61.16
2023-04-21T04:37:04.831Z,61.72
2023-04-21T04:38:35.898Z,62.05
2023-04-21T04:40:24.528Z,62.94
2023-04-21T04:42:00.980Z,63.16
2023-04-21T04:43:27.510Z,60.12
2023-04-21T04:45:04.582Z,56.30
2023-04-21T04:46:49.397Z,54.09
2023-04-21T04:48:26.210Z,54.91
2023-04-21T04:49:59.859Z,56.12
2023-04-21T04:51:42.983Z,56.72
2023-04-21T04:53:16.479Z,57.79
2023-04-21T04:55:01.231Z,58.70
2023-04-21T04:56:34.517Z,59.50
2023-04-21T04:58:03.743Z,60.08
2023-04-21T04:59:39.998Z,60.56
2023-04-21T05:01:14.038Z,61.27
2023-04-21T05:02:49.395Z,61.53
2023-04-21T05:04:26.508Z,61.99
2023-04-21T05:06:10.001Z,63.06
2023-04-21T05:07:44.270Z,63.25
2023-04-21T05:09:18.038Z,59.64
2023-04-21T05:10:49.415Z,55.84
2023-04-21T05:12:13.556Z,54.68
2023-04-21T05:13:47.150Z,54.67
2023-04-21T05:15:27.837Z,55.29
2023-04-21T05:17:12.900Z,56.60
2023-04-21T05:18:59.772Z,57.78
2023-04-21T05:20:35.751Z,58.20
2023-04-21T05:22:02.109Z,59.03
2023-04-21T05:23:43.022Z,59.37
2023-04-21T05:25:16.284Z,59.91
2023-04-21T05:26:56.437Z,60.61
2023-04-21T05:28:37.226Z,60.51
2023-04-21T05:30:22.711Z,61.32
2023-04-21T05:32:00.307Z,61.58
2023-04-21T05:33:34.814Z,61.97
2023-04-21T05:35:19.868Z,61.49
2023-04-21T05:36:43.419Z,61.55
2023-04-21T05:38:19.348Z,62.05
2023-04-21T05:39:55.880Z,61.68
2023-04-21T05:41:40.639Z,62.37
2023-04-21T05:43:16.662Z,62.98
2023-04-21T05:45:01.954Z,60.91
2023-04-21T05:46:45.432Z,57.11
2023-04-21T05:48:15.121Z,54.48
2023-04-21T05:49:50.346Z,54.58
2023-04-21T05:51:31.432Z,55.17
2023-04-21T05:52:55.811Z,56.07
2023-04-21T05:54:40.732Z,56.40
2023-04-21T05:56:16.191Z,56.94
2023-04-21T05:57:58.767Z,56.71
2023-04-21T05:59:44.382Z,56.88
2023-04-21T06:01:27.538Z,57.61
2023-04-21T06:03:12.767Z,57.56
2023-04-21T06:04:34.483Z,57.90
2023-04-21T06:06:19.978Z,58.24
2023-04-21T06:07:53.563Z,58.86
2023-04-21T06:09:38.907Z,59.28
2023-04-21T06:11:01.105Z,58.32
2023-04-21T06:12:25.308Z,58.84
2023-04-21T06:13:58.698Z,59.02
2023-04-21T06:15:44.359Z,58.77
2023-04-21T06:17:20.150Z,58.26
2023-04-21T06:19:00.525Z,58.07
2023-04-21T06:20:45.357Z,57.93
2023-04-21T06:22:10.008Z,58.15
2023-04-21T06:23:54.684Z,58.03
2023-04-21T06:25:30.085Z,57.17
2023-04-21T06:27:10.834Z,57.00
2023-04-21T06:28:34.419Z,57.10
2023-04-21T06:30:03.501Z,56.82
2023-04-21T06:31:44.267Z,56.49
2023-04-21T06:33:24.942Z,56.12
2023-04-21T06:35:08.703Z,55.79
2023-04-21T06:36:54.376Z,56.42
2023-04-21T06:38:27.409Z,56.78
2023-04-21T06:40:03.707Z,56.89
2023-04-21T06:41:37.919Z,57.02
2023-04-21T06:43:19.428Z,56.99
2023-04-21T06:45:04.197Z,56.04
2023-04-21T06:46:50.215Z,56.61
2023-04-21T06:48:26.297Z,56.58
2023-04-21T06:50:11.005Z,56.73
2023-04-21T06:51:42.102Z,57.07
2023-04-21T06:53:27.278Z,57.14
2023-04-21T06:55:07.135Z,56.48
2023-04-21T06:56:52.464Z,55.69
2023-04-21T06:58:37.373Z,55.23
2023-04-21T07:00:13.378Z,54.99
2023-04-21T07:02:00.820Z,55.42
2023-04-21T07:03:32.112Z,55.35
2023-04-21T07:05:08.222Z,55.30
2023-04-21T07:06:43.568Z,54.96
2023-04-21T07:08:17.422Z,55.37
2023-04-21T07:09:48.357Z,54.96
2023-04-21T07:11:34.734Z,55.04
2023-04-21T07:13:19.581Z,56.11
2023-04-21T07:14:43.280Z,55.02
2023-04-21T07:16:28.623Z,54.99
2023-04-21T07:18:04.576Z,55.33
2023-04-21T07:19:45.178Z,55.73
2023-04-21T07:21:30.360Z,56.19
2023-04-21T07:23:03.638Z,55.74
2023-04-21T07:24:45.471Z,55.11
2023-04-21T07:26:27.280Z,55.23
2023-04-21T07:27:53.549Z,54.93
2023-04-21T07:29:27.398Z,54.88
2023-04-21T07:31:10.439Z,55.74
2023-04-21T07:33:04.458Z,55.24
2023-04-21T07:34:49.588Z,54.65
2023-04-21T07:36:31.239Z,54.45
2023-04-21T07:38:02.510Z,54.47
2023-04-21T07:39:38.102Z,54.51
2023-04-21T07:41:19.109Z,54.46
2023-04-21T07:42:54.717Z,53.79
2023-04-21T07:44:32.482Z,53.56
2023-04-21T07:46:13.481Z,53.72
2023-04-21T07:47:48.526Z,53.08
2023-04-21T07:49:22.323Z,52.71
2023-04-21T07:51:07.468Z,52.98
2023-04-21T07:52:55.527Z,51.71
2023-04-21T07:54:35.580Z,51.30
2023-04-21T07:56:09.354Z,51.65
2023-04-21T07:57:53.152Z,51.38
2023-04-21T07:59:20.737Z,51.21
2023-04-21T08:01:05.651Z,50.80
2023-04-21T08:02:38.964Z,50.84
2023-04-21T08:04:15.007Z,50.69
2023-04-21T08:05:48.706Z,50.24
2023-04-21T08:07:22.322Z,50.31
2023-04-21T08:09:04.484Z,50.60
2023-04-21T08:10:45.048Z,50.80
2023-04-21T08:12:38.346Z,50.53
2023-04-21T08:14:12.023Z,49.03
2023-04-21T08:15:45.258Z,49.96
2023-04-21T08:17:18.918Z,48.01
2023-04-21T08:19:13.405Z,48.51
2023-04-21T08:20:49.433Z,48.44
2023-04-21T08:22:13.869Z,48.32
2023-04-21T08:24:07.904Z,47.68
2023-04-21T08:25:37.013Z,48.03
2023-04-21T08:27:22.408Z,48.71
2023-04-21T08:29:06.677Z,46.66
2023-04-21T08:30:46.890Z,46.89
2023-04-21T08:32:27.480Z,46.21
2023-04-21T08:34:10.436Z,46.51
2023-04-21T08:35:36.601Z,47.69
2023-04-21T08:37:12.469Z,47.55
2023-04-21T08:38:53.340Z,44.62
2023-04-21T08:40:15.557Z,44.45
2023-04-21T08:41:39.658Z,44.43
2023-04-21T08:43:16.182Z,44.50
2023-04-21T08:44:56.799Z,45.04
2023-04-21T08:46:30.184Z,46.04
2023-04-21T08:48:16.208Z,45.00
2023-04-21T08:49:49.443Z,45.02
2023-04-21T08:51:35.269Z,44.92
2023-04-21T08:53:08.687Z,44.48
2023-04-21T08:55:01.801Z,44.03
2023-04-21T08:56:46.798Z,44.81
2023-04-21T08:58:31.770Z,41.49
2023-04-21T08:59:58.189Z,42.33
2023-04-21T09:01:33.952Z,42.26
2023-04-21T09:03:19.266Z,42.31
2023-04-21T09:05:10.604Z,42.97
2023-04-21T09:06:46.457Z,42.35
2023-04-21T09:08:31.812Z,41.93
2023-04-21T09:10:00.764Z,41.40
2023-04-21T09:11:54.267Z,42.35
2023-04-21T09:13:18.734Z,39.69
2023-04-21T09:14:40.503Z,40.42
2023-04-21T09:16:22.462Z,40.50
2023-04-21T09:17:44.258Z,39.92
2023-04-21T09:19:18.071Z,39.28
2023-04-21T09:20:51.116Z,40.31
2023-04-21T09:22:17.724Z,39.70
2023-04-21T09:23:42.002Z,39.34
2023-04-21T09:25:16.388Z,40.09
2023-04-21T09:26:49.265Z,39.71
2023-04-21T09:28:21.406Z,39.11
2023-04-21T09:29:43.250Z,38.56
2023-04-21T09:31:24.601Z,39.63
2023-04-21T09:32:58.507Z,40.46
2023-04-21T09:34:33.769Z,40.88
2023-04-21T09:36:18.958Z,39.80
2023-04-21T09:37:59.524Z,40.39
2023-04-21T09:39:43.255Z,40.50
2023-04-21T09:41:39.017Z,41.80
2023-04-21T09:43:08.459Z,39.69
2023-04-21T09:44:59.590Z,39.04
2023-04-21T09:46:58.397Z,39.73
2023-04-21T09:48:31.717Z,39.67
2023-04-21T09:50:19.563Z,38.19
2023-04-21T09:53:28.884Z,38.67
2023-04-21T09:55:04.252Z,39.11
2023-04-21T09:56:40.228Z,38.08
2023-04-21T09:58:25.346Z,38.32
2023-04-21T10:00:07.405Z,39.21
2023-04-21T10:01:43.169Z,37.13
2023-04-21T10:03:17.206Z,39.17
2023-04-21T10:04:40.970Z,38.19
2023-04-21T10:06:22.017Z,38.32
2023-04-21T10:08:06.905Z,37.10
2023-04-21T10:09:56.273Z,36.92
2023-04-21T10:11:20.526Z,38.38
2023-04-21T10:13:06.426Z,38.64
2023-04-21T10:14:51.592Z,37.00
2023-04-21T10:16:23.384Z,38.02
2023-04-21T10:17:56.536Z,36.81
2023-04-21T10:19:49.870Z,37.71
2023-04-21T10:21:11.999Z,36.58
2023-04-21T10:22:56.945Z,36.28
2023-04-21T10:24:49.660Z,36.73
2023-04-21T10:26:23.628Z,37.53
2023-04-21T10:28:08.964Z,36.10
2023-04-21T10:29:52.512Z,35.47
2023-04-21T10:31:29.345Z,35.37
2023-04-21T10:33:02.836Z,35.63
2023-04-21T10:34:27.052Z,34.79
2023-04-21T10:36:08.671Z,34.41
2023-04-21T10:37:34.737Z,35.15
2023-04-21T10:39:16.096Z,36.02
2023-04-21T10:40:59.784Z,36.66
2023-04-21T10:42:31.132Z,36.40
2023-04-21T10:44:12.175Z,37.37
2023-04-21T10:45:57.304Z,36.14
2023-04-21T10:47:38.167Z,35.97
2023-04-21T10:49:11.314Z,35.82
2023-04-21T10:50:35.725Z,35.58
2023-04-21T10:52:30.557Z,34.23
2023-04-21T10:54:03.578Z,32.96
2023-04-21T10:55:58.465Z,32.70
2023-04-21T10:57:39.287Z,33.81
2023-04-21T10:59:12.994Z,33.66
2023-04-21T11:00:53.612Z,34.72
2023-04-21T11:02:18.360Z,33.80
2023-04-21T11:03:59.128Z,33.20
2023-04-21T11:05:34.482Z,33.42
2023-04-21T11:07:19.791Z,33.81
2023-04-21T11:08:43.533Z,33.08
2023-04-21T11:10:05.817Z,32.15
2023-04-21T11:11:40.977Z,32.21
2023-04-21T11:13:14.332Z,31.53
2023-04-21T11:14:43.457Z,31.08
2023-04-21T11:16:07.912Z,32.03
2023-04-21T11:17:29.576Z,31.49
2023-04-21T11:18:58.718Z,30.96
2023-04-21T11:20:30.478Z,30.47
2023-04-21T11:22:01.673Z,31.33
2023-04-21T11:23:34.193Z,32.69
2023-04-21T11:25:07.251Z,31.06
2023-04-21T11:26:29.315Z,30.86
2023-04-21T11:28:05.375Z,32.40
2023-04-21T11:29:29.726Z,32.71
2023-04-21T11:31:05.775Z,34.79
2023-04-21T11:32:40.430Z,32.53
2023-04-21T11:34:25.571Z,31.62
2023-04-21T11:35:58.912Z,32.66
2023-04-21T11:37:42.464Z,31.67
2023-04-21T11:39:16.428Z,31.97
2023-04-21T11:41:01.600Z,32.53
2023-04-21T11:42:50.624Z,31.64
2023-04-21T11:44:35.671Z,31.73
2023-04-21T11:46:08.958Z,30.60
2023-04-21T11:47:42.373Z,30.70
2023-04-21T11:49:12.209Z,29.47
2023-04-21T11:51:05.493Z,28.91
2023-04-21T11:52:39.505Z,29.64
2023-04-21T11:54:24.971Z,30.56
2023-04-21T11:56:10.636Z,30.34
2023-04-21T11:57:55.081Z,28.68
2023-04-21T11:59:38.470Z,29.65
2023-04-21T12:01:24.481Z,28.73
2023-04-21T12:03:17.873Z,28.54
2023-04-21T12:05:03.532Z,28.62
2023-04-21T12:07:02.397Z,28.36
2023-04-21T12:08:55.593Z,29.12
2023-04-21T12:10:40.357Z,30.45
2023-04-21T12:12:05.455Z,28.41
2023-04-21T12:13:36.119Z,28.00
2023-04-21T12:14:58.108Z,27.89
2023-04-21T12:16:35.098Z,28.30
2023-04-21T12:18:16.218Z,28.81
2023-04-21T12:19:51.497Z,27.09
2023-04-21T12:21:27.813Z,27.80
2023-04-21T12:23:01.156Z,27.55
2023-04-21T12:24:37.070Z,28.34
2023-04-21T12:26:22.473Z,27.94
2023-04-21T12:28:03.193Z,28.21
2023-04-21T12:29:39.080Z,28.98
2023-04-21T12:31:13.917Z,26.78
2023-04-21T12:33:07.271Z,26.89
2023-04-21T12:35:00.944Z,25.20
2023-04-21T12:36:36.664Z,25.95
2023-04-21T12:38:22.143Z,25.65
2023-04-21T12:40:06.954Z,26.48
2023-04-21T12:41:38.030Z,28.38
2023-04-21T12:43:13.370Z,27.89
2023-04-21T12:44:54.463Z,26.61
2023-04-21T12:46:28.189Z,25.77
2023-04-21T12:47:50.260Z,25.69
2023-04-21T12:49:23.610Z,25.48
2023-04-21T12:50:58.926Z,26.01
2023-04-21T12:52:23.147Z,26.07
2023-04-21T12:53:51.969Z,25.27
2023-04-21T12:55:37.390Z,25.44
2023-04-21T12:57:23.207Z,24.14
2023-04-21T12:58:48.298Z,23.81
2023-04-21T13:00:14.664Z,24.22
2023-04-21T13:01:38.864Z,25.16
2023-04-21T13:03:00.988Z,24.64
2023-04-21T13:04:22.848Z,25.09
2023-04-21T13:05:45.758Z,24.44
2023-04-21T13:07:21.694Z,24.21
2023-04-21T13:08:50.238Z,24.65
2023-04-21T13:10:12.682Z,25.18
2023-04-21T13:11:42.354Z,26.10
2023-04-21T13:13:11.828Z,25.21
2023-04-21T13:15:01.524Z,24.57
2023-04-21T13:16:50.207Z,24.08
2023-04-21T13:18:24.002Z,24.24
2023-04-21T13:20:09.395Z,25.11
2023-04-21T13:21:42.379Z,24.64
2023-04-21T13:23:18.190Z,24.89
2023-04-21T13:24:51.383Z,25.50
2023-04-21T13:26:45.501Z,24.60
2023-04-21T13:28:30.956Z,23.93
2023-04-21T13:30:16.155Z,23.47
2023-04-21T13:32:09.536Z,23.19
2023-04-21T13:33:53.030Z,24.39
2023-04-21T13:35:27.494Z,24.37
2023-04-21T13:37:12.461Z,23.59
2023-04-21T13:38:56.923Z,23.10
2023-04-21T13:40:30.030Z,22.67
2023-04-21T13:42:15.160Z,23.07
2023-04-21T13:43:50.465Z,22.99
2023-04-21T13:45:35.699Z,23.27
2023-04-21T13:46:57.574Z,23.41
2023-04-21T13:48:31.221Z,23.52
2023-04-21T13:50:04.929Z,24.04
2023-04-21T13:51:40.854Z,24.24
2023-04-21T13:53:04.554Z,25.48
2023-04-21T13:54:49.513Z,24.86
2023-04-21T13:56:25.502Z,25.54
2023-04-21T13:57:54.806Z,24.57
2023-04-21T13:59:30.661Z,23.82
2023-04-21T14:01:04.582Z,24.30
2023-04-21T14:02:40.376Z,24.00
2023-04-21T14:04:14.590Z,23.53
2023-04-21T14:05:39.051Z,24.09
2023-04-21T14:07:12.559Z,23.74
2023-04-21T14:08:53.267Z,24.26
2023-04-21T14:10:30.033Z,24.76
2023-04-21T14:11:53.614Z,23.93
2023-04-21T14:13:37.512Z,24.08
2023-04-21T14:15:15.668Z,23.74
2023-04-21T14:16:50.901Z,23.85
2023-04-21T14:18:27.043Z,23.89
2023-04-21T14:20:12.266Z,23.72
2023-04-21T14:21:57.575Z,23.77
2023-04-21T14:23:31.136Z,23.20
2023-04-21T14:25:24.784Z,23.75
2023-04-21T14:27:00.217Z,24.50
2023-04-21T14:28:41.028Z,25.15
2023-04-21T14:30:03.021Z,24.47
2023-04-21T14:31:36.652Z,25.00
2023-04-21T14:33:21.868Z,23.71
2023-04-21T14:35:04.915Z,23.85
2023-04-21T14:36:59.564Z,23.82
2023-04-21T14:38:44.562Z,23.28
2023-04-21T14:40:39.532Z,22.21
2023-04-21T14:42:15.743Z,23.04
2023-04-21T14:44:09.518Z,22.51
2023-04-21T14:45:35.983Z,21.79
2023-04-21T14:47:12.137Z,22.21
2023-04-21T14:48:48.558Z,22.02
2023-04-21T14:50:43.506Z,21.70
2023-04-21T14:52:24.338Z,22.05
2023-04-21T14:54:05.625Z,21.08
2023-04-21T14:55:41.351Z,20.59
2023-04-21T14:57:27.103Z,21.96
2023-04-21T14:59:10.974Z,22.52
2023-04-21T15:00:53.574Z,22.12
2023-04-21T15:02:48.599Z,22.61
2023-04-21T15:04:43.623Z,22.36
2023-04-21T15:06:34.107Z,21.37
2023-04-21T15:08:15.131Z,20.63
2023-04-21T15:09:48.546Z,20.76
2023-04-21T15:11:41.761Z,21.05
2023-04-21T15:13:15.500Z,20.45
2023-04-21T15:15:00.367Z,21.00
2023-04-21T15:16:45.490Z,20.68
2023-04-21T15:18:19.280Z,20.93
2023-04-21T15:19:54.534Z,21.13
2023-04-21T15:21:27.855Z,21.48
2023-04-21T15:23:12.971Z,22.30
2023-04-21T15:24:56.579Z,22.56
2023-04-21T15:26:30.177Z,22.17
2023-04-21T15:28:15.306Z,22.27
2023-04-21T15:29:50.749Z,21.79
2023-04-21T15:31:24.540Z,22.24
2023-04-21T15:33:09.742Z,22.42
2023-04-21T15:36:54.817Z,21.57
2023-04-21T15:38:26.532Z,22.41
2023-04-21T15:40:02.007Z,21.89
2023-04-21T15:41:35.138Z,21.57
2023-04-21T15:43:08.668Z,21.88
2023-04-21T15:44:30.816Z,21.60
2023-04-21T15:46:00.006Z,21.66
2023-04-21T15:47:24.731Z,21.19
2023-04-21T15:48:48.550Z,20.78
2023-04-21T15:50:25.075Z,21.16
2023-04-21T15:52:06.142Z,21.78
2023-04-21T15:53:47.111Z,21.76
2023-04-21T15:55:21.283Z,21.59
2023-04-21T15:56:52.492Z,22.47
2023-04-21T15:58:17.124Z,22.18
2023-04-21T15:59:40.585Z,22.72
2023-04-21T16:01:25.698Z,22.32
2023-04-21T16:02:55.091Z,23.51
2023-04-21T16:04:19.656Z,23.02
2023-04-21T16:06:00.919Z,23.05
2023-04-21T16:07:25.352Z,22.76
2023-04-21T16:08:49.070Z,22.52
2023-04-21T16:10:43.557Z,22.80
2023-04-21T16:12:17.250Z,22.94
2023-04-21T16:13:52.750Z,23.39
2023-04-21T16:15:46.519Z,23.17
2023-04-21T16:17:27.748Z,24.51
2023-04-21T16:19:12.962Z,23.58
2023-04-21T16:20:53.846Z,24.07
2023-04-21T16:22:30.061Z,24.37
2023-04-21T16:24:14.989Z,24.65
2023-04-21T16:25:51.524Z,25.17
2023-04-21T16:27:25.522Z,25.15
2023-04-21T16:29:10.735Z,25.36
2023-04-21T16:30:43.343Z,26.02
2023-04-21T16:32:17.162Z,26.58
2023-04-21T16:34:06.174Z,26.79
2023-04-21T16:35:42.107Z,27.44
2023-04-21T16:37:04.040Z,27.94
2023-04-21T16:38:39.689Z,28.74
2023-04-21T16:40:13.657Z,29.32
2023-04-21T16:41:58.825Z,29.44
2023-04-21T16:43:43.725Z,30.29
2023-04-21T16:45:17.591Z,31.33
2023-04-21T16:46:53.076Z,30.74
2023-04-21T16:48:18.102Z,30.85
2023-04-21T16:50:11.370Z,31.43
2023-04-21T16:51:52.007Z,32.14
2023-04-21T16:53:33.001Z,32.36
2023-04-21T16:55:09.891Z,32.55
2023-04-21T16:56:45.764Z,32.86
2023-04-21T16:58:07.668Z,33.39
2023-04-21T16:59:38.911Z,33.84
2023-04-21T17:01:20.645Z,33.48
2023-04-21T17:03:01.518Z,34.12
2023-04-21T17:04:37.721Z,34.27
2023-04-21T17:06:09.567Z,34.55
2023-04-21T17:07:49.313Z,35.02
2023-04-21T17:09:39.525Z,35.58
2023-04-21T17:11:21.082Z,35.76
2023-04-21T17:12:56.862Z,35.95
2023-04-21T17:14:37.847Z,36.30
2023-04-21T17:16:11.959Z,36.90
2023-04-21T17:17:47.229Z,37.24
2023-04-21T17:19:28.588Z,38.33
2023-04-21T17:21:14.152Z,37.99
2023-04-21T17:22:45.286Z,38.28
2023-04-21T17:24:18.993Z,38.91
2023-04-21T17:26:03.825Z,39.70
2023-04-21T17:27:58.523Z,39.85
2023-04-21T17:29:20.599Z,40.50
2023-04-21T17:31:15.632Z,39.95
2023-04-21T17:33:00.571Z,41.12
2023-04-21T17:34:33.667Z,41.58
2023-04-21T17:36:19.068Z,42.55
2023-04-21T17:37:42.773Z,42.46
2023-04-21T17:39:04.441Z,42.70
2023-04-21T17:40:38.007Z,43.04
2023-04-21T17:42:13.394Z,43.27
2023-04-21T17:43:56.559Z,43.49
2023-04-21T17:45:40.983Z,43.68
2023-04-21T17:47:10.313Z,44.08
2023-04-21T17:48:34.403Z,44.17
2023-04-21T17:50:09.922Z,44.83
2023-04-21T17:51:43.063Z,44.74
2023-04-21T17:53:19.512Z,45.10
2023-04-21T17:54:53.541Z,44.81
2023-04-21T17:56:38.848Z,45.54
2023-04-21T17:58:00.241Z,45.42
2023-04-21T17:59:45.325Z,45.91
2023-04-21T18:01:21.793Z,46.00
2023-04-21T18:02:55.211Z,46.38
2023-04-21T18:04:30.697Z,46.43
2023-04-21T18:06:16.477Z,47.17
2023-04-21T18:07:51.471Z,47.00
2023-04-21T18:09:37.129Z,46.68
2023-04-21T18:11:23.128Z,47.46
2023-04-21T18:12:44.416Z,47.49
2023-04-21T18:14:40.663Z,47.77
2023-04-21T18:16:26.121Z,48.43
2023-04-21T18:18:00.060Z,47.81
2023-04-21T18:19:35.803Z,47.74
2023-04-21T18:20:59.624Z,48.61
2023-04-21T18:22:51.877Z,49.09
2023-04-21T18:24:46.555Z,49.17
2023-04-21T18:26:20.737Z,49.73
2023-04-21T18:27:56.089Z,49.51
2023-04-21T18:29:51.554Z,49.50
2023-04-21T18:31:37.783Z,50.46
2023-04-21T18:33:23.126Z,50.18
2023-04-21T18:34:59.230Z,50.47
2023-04-21T18:36:31.580Z,51.06
2023-04-21T18:38:15.643Z,51.30
2023-04-21T18:39:44.484Z,51.44
2023-04-21T18:43:32.633Z,51.49
2023-04-21T18:45:18.056Z,52.16
2023-04-21T18:47:11.336Z,52.22
2023-04-21T18:48:53.457Z,52.59
2023-04-21T18:50:50.565Z,52.74
2023-04-21T18:52:37.073Z,53.42
2023-04-21T18:54:18.593Z,53.36
2023-04-21T18:55:57.248Z,53.34
2023-04-21T18:57:33.043Z,53.67
2023-04-21T18:59:17.710Z,53.78
2023-04-21T19:00:49.673Z,54.17
2023-04-21T19:02:16.189Z,54.50
2023-04-21T19:04:01.123Z,54.98
2023-04-21T19:05:50.640Z,55.84
2023-04-21T19:07:24.176Z,55.53
2023-04-21T19:08:57.740Z,55.22
2023-04-21T19:10:31.036Z,55.12
2023-04-21T19:12:10.032Z,55.79
2023-04-21T19:16:10.627Z,55.90
2023-04-21T19:17:46.344Z,55.56
2023-04-21T19:19:17.945Z,56.04
2023-04-21T19:20:53.428Z,56.72
2023-04-21T19:22:39.423Z,56.39
2023-04-21T19:24:24.660Z,56.08
2023-04-21T19:26:09.740Z,56.66
2023-04-21T19:27:54.784Z,56.82
2023-04-21T19:29:49.576Z,56.81
2023-04-21T19:31:23.233Z,56.56
2023-04-21T19:33:08.313Z,56.70
2023-04-21T19:34:30.347Z,56.71
2023-04-21T19:36:06.206Z,57.12
2023-04-21T19:37:51.579Z,57.31
2023-04-21T19:39:16.101Z,56.94
2023-04-21T19:40:45.367Z,57.07
2023-04-21T19:42:14.901Z,57.26
2023-04-21T19:43:38.733Z,56.90
2023-04-21T19:45:08.844Z,57.70
2023-04-21T19:46:42.570Z,57.60
2023-04-21T19:48:28.215Z,57.10
2023-04-21T19:50:13.647Z,57.90
2023-04-21T19:51:48.920Z,57.75
2023-04-21T19:53:25.215Z,57.80
2023-04-21T19:54:58.342Z,57.78
2023-04-21T19:56:38.759Z,57.61
2023-04-21T20:00:06.782Z,58.25
2023-04-21T20:01:33.849Z,58.42
2023-04-21T20:02:57.590Z,58.63
2023-04-21T20:04:31.521Z,58.50
2023-04-21T20:06:05.390Z,58.50
2023-04-21T20:07:50.424Z,58.52
2023-04-21T20:09:24.422Z,58.19
2023-04-21T20:11:00.641Z,58.27
2023-04-21T20:12:22.578Z,58.35
2023-04-21T20:13:56.257Z,58.13
2023-04-21T20:15:21.628Z,58.03
2023-04-21T20:16:45.670Z,58.71
2023-04-21T20:18:09.549Z,58.55
2023-04-21T20:19:33.764Z,59.07
2023-04-21T20:21:03.168Z,59.02
2023-04-21T20:22:26.631Z,58.86
2023-04-21T20:24:04.158Z,58.59
2023-04-21T20:25:35.730Z,58.90
2023-04-21T20:26:59.829Z,59.44
2023-04-21T20:28:21.661Z,59.63
2023-04-21T20:29:46.647Z,59.63
2023-04-21T20:31:23.736Z,59.76
2023-04-21T20:32:47.681Z,59.82
2023-04-21T20:34:09.876Z,59.90
2023-04-21T20:35:46.205Z,59.90
2023-04-21T20:37:29.509Z,60.14
2023-04-21T20:39:02.714Z,60.80
2023-04-21T20:40:24.603Z,60.48
2023-04-21T20:41:57.989Z,61.03
2023-04-21T20:43:26.864Z,60.84
2023-04-21T20:44:51.127Z,60.80
2023-04-21T20:46:13.680Z,60.75
2023-04-21T20:47:35.377Z,60.62
2023-04-21T20:48:59.472Z,60.43
2023-04-21T20:50:44.016Z,60.58
2023-04-21T20:52:10.418Z,60.41
2023-04-21T20:53:51.208Z,60.48
2023-04-21T20:55:45.482Z,60.81
2023-04-21T20:59:42.067Z,60.59
2023-04-21T21:01:34.586Z,61.04
2023-04-21T21:03:10.293Z,60.74
2023-04-21T21:04:56.383Z,60.59
2023-04-21T21:06:42.472Z,60.65
2023-04-21T21:08:28.100Z,60.42
2023-04-21T21:10:14.142Z,60.39